ASN logo
ASN Wikibase Occurrence # 185056
Last updated: 27 January 2020
This information is added by users of ASN. Neither ASN nor the Flight Safety Foundation are responsible for the completeness or correctness of this information. If you feel this information is incomplete or incorrect, you can submit corrected information.

Date:01-MAR-2016
Time:20:32
Type:Silhouette image of generic B739 model; specific model in this crash may look slightly different
Boeing 737-9GJER
Owner/operator:Spicejet
Registration: VT-SLD
C/n / msn: 34957/2639
Fatalities:Fatalities: 0 / Occupants:
Other fatalities:0
Aircraft damage: Minor
Location:Kolkata-Netaji Subhas Chandra Airport (CCU/VECC) -   India
Phase: Landing
Nature:Domestic Scheduled Passenger
Departure airport:Bengaluru International Airport (BLR/VOBL)
Destination airport:Kolkata-Netaji Subhas Chandra Airport (CCU/VECC)
Narrative:
Spicejet flight SG517 suffered a tyre burst upon landing at Kolkata-Netaji Subhas Chandra Airport in India.The aircraft, a Boeing 737-900ER, operated on a domestic flight from Bengaluru. The incident happened when the aircraft landed at 15:02 UTC (20:32 local time) while landing on runway 19L.

Weather about the time of the incident:
VECC 011500Z 18004KT 3200 HZ FEW020 SCT100 27/22 Q1014 BECMG 3000 HZ
VECC 011530Z 18003KT 2800 HZ FEW020 SCT100 27/22 Q1014 NOSIG

Sources:

https://www.indiatoday.in/india/delhi/story/spicejet-flight-makes-emergency-landing-in-kolkata-after-tyre-burst-311337-2016-03-01
https://www.flightradar24.com/data/flights/sg517/#8f77aeb


Revision history:

Date/timeContributorUpdates
01-Mar-2016 18:55 harro Added
01-Mar-2016 19:01 harro Updated [Embed code, Narrative]

Corrections or additions? ... Edit this accident description